Time;durP1;ratioP1;P1;durP2;ratioP2;P2;SDS_P1;SDS_P2;PMS_P1;PMS_P2;Temp;Humidity;BMP_temperature;BMP_pressure;BME280_temperature;BME280_humidity;BME280_pressure;Samples;Min_cycle;Max_cycle;Signal;HPM_P1;HPM_P2
2023/09/20 00:02:01;;;;;;;3.17;2.83;;;17.20;99.90;;;;;;5033825;28;20199;-72
2023/09/20 00:04:29;;;;;;;4.63;3.30;;;17.20;99.90;;;;;;5033366;28;20207;-72
2023/09/20 00:06:55;;;;;;;4.53;3.10;;;17.10;99.90;;;;;;5034043;28;20550;-72
2023/09/20 00:09:20;;;;;;;4.93;3.43;;;17.00;99.90;;;;;;5033623;28;20266;-72
2023/09/20 00:11:46;;;;;;;3.80;3.40;;;17.00;99.90;;;;;;5033844;28;20199;-73
2023/09/20 00:14:12;;;;;;;5.33;3.20;;;17.00;99.90;;;;;;5033626;28;20187;-74
2023/09/20 00:16:39;;;;;;;6.83;2.97;;;16.90;99.90;;;;;;5033799;28;20229;-71
2023/09/20 00:19:05;;;;;;;4.13;3.30;;;16.90;99.90;;;;;;5033434;28;20186;-72
2023/09/20 00:21:30;;;;;;;6.47;3.60;;;16.90;99.90;;;;;;5033503;28;20667;-73
2023/09/20 00:23:56;;;;;;;7.60;3.20;;;16.90;99.90;;;;;;5033540;28;20297;-72
2023/09/20 00:26:21;;;;;;;6.30;3.73;;;16.80;99.90;;;;;;5033463;28;20548;-73
2023/09/20 00:28:48;;;;;;;3.87;3.50;;;16.80;99.90;;;;;;5033510;28;20195;-73
2023/09/20 00:31:17;;;;;;;4.27;3.87;;;16.80;99.90;;;;;;5033148;28;20199;-72
2023/09/20 00:33:44;;;;;;;7.97;3.73;;;16.70;99.90;;;;;;5033520;28;20197;-73
2023/09/20 00:36:19;;;;;;;5.00;3.70;;;16.70;99.90;;;;;;5033545;28;20662;-73
2023/09/20 00:38:45;;;;;;;3.83;3.00;;;16.60;99.90;;;;;;5033283;28;20187;-73
2023/09/20 00:41:11;;;;;;;5.17;3.70;;;16.60;99.90;;;;;;5032839;28;20331;-73
2023/09/20 00:43:37;;;;;;;4.00;3.47;;;16.50;99.90;;;;;;5033138;28;20551;-74
2023/09/20 00:46:04;;;;;;;3.47;3.17;;;16.50;99.90;;;;;;5033202;28;20190;-73
2023/09/20 00:48:31;;;;;;;4.43;3.47;;;16.50;99.90;;;;;;5041340;28;20186;-73
2023/09/20 00:50:57;;;;;;;4.30;3.27;;;16.50;99.90;;;;;;5031540;28;20183;-74
2023/09/20 00:53:24;;;;;;;4.43;3.60;;;16.50;99.90;;;;;;5032758;28;20271;-72
2023/09/20 00:55:50;;;;;;;6.43;3.83;;;16.40;99.90;;;;;;5033213;28;20263;-73
2023/09/20 00:58:17;;;;;;;4.93;3.53;;;16.40;99.90;;;;;;5032795;28;20191;-74
2023/09/20 01:00:43;;;;;;;4.20;3.50;;;16.40;99.90;;;;;;5032729;28;20274;-73
2023/09/20 01:03:10;;;;;;;6.20;4.00;;;16.40;99.90;;;;;;5032719;28;20303;-73
2023/09/20 01:05:37;;;;;;;6.43;3.50;;;16.40;99.90;;;;;;5032947;28;20664;-72
2023/09/20 01:08:04;;;;;;;3.70;3.33;;;16.40;99.90;;;;;;5032716;28;20717;-73
2023/09/20 01:10:36;;;;;;;5.00;3.40;;;16.40;99.90;;;;;;5032574;28;20171;-73
2023/09/20 01:13:04;;;;;;;6.27;3.70;;;16.40;99.90;;;;;;5032540;28;20202;-73
2023/09/20 01:15:33;;;;;;;4.60;3.10;;;16.40;99.90;;;;;;5032667;28;20528;-72
2023/09/20 01:18:01;;;;;;;7.37;3.40;;;16.40;99.90;;;;;;5032626;28;20275;-72
2023/09/20 01:20:27;;;;;;;4.47;3.60;;;16.40;99.90;;;;;;5032294;28;20183;-72
2023/09/20 01:22:56;;;;;;;6.00;3.30;;;16.30;99.90;;;;;;5032523;28;20617;-73
2023/09/20 01:25:24;;;;;;;7.57;3.87;;;16.30;99.90;;;;;;5032264;28;20199;-73
2023/09/20 01:27:51;;;;;;;5.30;3.60;;;16.30;99.90;;;;;;5032480;28;20635;-73
2023/09/20 01:30:17;;;;;;;5.60;3.50;;;16.30;99.90;;;;;;5034524;28;20566;-72
2023/09/20 01:32:44;;;;;;;7.37;3.70;;;16.30;99.90;;;;;;5037811;28;20218;-73
2023/09/20 01:35:10;;;;;;;4.43;3.70;;;16.30;99.90;;;;;;5032465;28;20600;-75
2023/09/20 01:37:39;;;;;;;4.80;3.43;;;16.40;99.90;;;;;;5032635;28;20205;-73
2023/09/20 01:40:15;;;;;;;5.03;3.20;;;16.40;99.90;;;;;;5031917;28;20233;-73
2023/09/20 01:42:42;;;;;;;4.37;3.87;;;16.40;99.90;;;;;;5031846;28;20211;-72
2023/09/20 01:45:10;;;;;;;4.83;3.50;;;16.40;99.90;;;;;;5031900;28;20578;-72
2023/09/20 01:47:37;;;;;;;3.73;3.27;;;16.40;99.90;;;;;;5031772;28;20176;-73
2023/09/20 01:50:04;;;;;;;4.17;3.50;;;16.40;99.90;;;;;;5031730;28;20180;-72
2023/09/20 01:52:30;;;;;;;5.03;3.70;;;16.40;99.90;;;;;;5031655;28;20203;-74
2023/09/20 01:54:57;;;;;;;5.57;3.60;;;16.50;99.90;;;;;;5032025;28;20179;-72
2023/09/20 01:57:23;;;;;;;4.43;3.90;;;16.50;99.90;;;;;;5031744;28;20189;-72
2023/09/20 01:59:48;;;;;;;4.40;4.00;;;16.50;99.90;;;;;;5031648;28;20175;-72
2023/09/20 02:02:14;;;;;;;6.33;4.30;;;16.50;99.90;;;;;;5031484;28;20273;-72
2023/09/20 02:04:39;;;;;;;6.37;4.23;;;16.50;99.90;;;;;;5029951;28;20213;-72
2023/09/20 02:07:06;;;;;;;7.23;3.87;;;16.50;99.90;;;;;;5031244;28;20581;-72
2023/09/20 02:09:32;;;;;;;4.47;3.70;;;16.50;99.90;;;;;;5039708;28;20168;-72
2023/09/20 02:11:58;;;;;;;4.17;3.70;;;16.50;99.90;;;;;;5031702;28;20246;-72
2023/09/20 02:14:23;;;;;;;4.40;3.40;;;16.50;99.90;;;;;;5031691;28;20210;-72
2023/09/20 02:16:50;;;;;;;4.30;3.40;;;16.50;99.90;;;;;;5031843;28;20640;-72
2023/09/20 02:19:19;;;;;;;3.87;3.43;;;16.50;99.90;;;;;;5031398;28;20561;-71
2023/09/20 02:21:45;;;;;;;4.87;3.73;;;16.50;99.90;;;;;;5037701;28;20630;-72
2023/09/20 02:24:11;;;;;;;5.47;3.80;;;16.60;99.90;;;;;;5033393;28;20231;-72
2023/09/20 02:26:37;;;;;;;7.60;4.27;;;16.50;99.90;;;;;;5030311;28;20214;-72
2023/09/20 02:29:03;;;;;;;4.53;3.53;;;16.50;99.90;;;;;;5031453;28;20206;-72
2023/09/20 02:31:28;;;;;;;6.67;3.53;;;16.50;99.90;;;;;;5031530;28;20195;-73
2023/09/20 02:33:55;;;;;;;3.73;3.33;;;16.50;99.90;;;;;;5038843;28;20597;-73
2023/09/20 02:36:21;;;;;;;4.53;4.10;;;16.50;99.90;;;;;;5040221;28;20171;-72
2023/09/20 02:38:46;;;;;;;8.73;3.57;;;16.40;99.90;;;;;;5030091;28;20228;-72
2023/09/20 02:41:12;;;;;;;7.27;4.23;;;16.50;99.90;;;;;;5030971;28;20278;-72
2023/09/20 02:43:38;;;;;;;5.60;3.87;;;16.50;99.90;;;;;;5031217;28;20600;-72
2023/09/20 02:46:05;;;;;;;7.33;3.60;;;16.50;99.90;;;;;;5030922;28;20329;-72
2023/09/20 02:48:31;;;;;;;5.30;3.70;;;16.50;99.90;;;;;;5031096;28;20172;-72
2023/09/20 02:51:00;;;;;;;7.10;4.03;;;16.50;99.90;;;;;;5031359;28;20175;-72
2023/09/20 02:53:26;;;;;;;4.67;3.03;;;16.50;99.90;;;;;;5031184;28;20241;-72
2023/09/20 02:55:54;;;;;;;5.90;3.30;;;16.50;99.90;;;;;;5031375;28;20655;-72
2023/09/20 02:58:20;;;;;;;3.60;3.17;;;16.60;99.90;;;;;;5030987;28;20189;-74
2023/09/20 03:00:50;;;;;;;4.73;3.57;;;16.60;99.90;;;;;;5030850;28;20172;-72
2023/09/20 03:03:17;;;;;;;5.93;3.93;;;16.60;99.90;;;;;;5031015;28;20172;-73
2023/09/20 03:05:44;;;;;;;5.43;3.73;;;16.50;99.90;;;;;;5031210;28;20199;-72
2023/09/20 03:08:13;;;;;;;4.67;3.83;;;16.50;99.90;;;;;;5039280;28;20195;-72
2023/09/20 03:10:41;;;;;;;8.63;4.30;;;16.60;99.90;;;;;;5029468;28;20178;-72
2023/09/20 03:13:10;;;;;;;4.20;3.80;;;16.50;99.90;;;;;;5030924;28;20210;-73
2023/09/20 03:15:43;;;;;;;6.37;3.60;;;16.50;99.90;;;;;;5031128;28;20168;-72
2023/09/20 03:18:11;;;;;;;5.37;4.00;;;16.50;99.90;;;;;;5034687;28;20665;-73
2023/09/20 03:20:38;;;;;;;7.77;3.90;;;16.40;99.90;;;;;;5033380;28;20647;-73
2023/09/20 03:23:05;;;;;;;7.37;4.30;;;16.30;99.90;;;;;;5034869;28;20256;-72
2023/09/20 03:25:37;;;;;;;7.83;4.03;;;16.30;99.90;;;;;;5034949;28;20670;-71
2023/09/20 03:28:07;;;;;;;5.60;4.10;;;16.20;99.90;;;;;;5035050;28;20182;-72
2023/09/20 03:30:33;;;;;;;8.07;4.27;;;16.10;99.90;;;;;;5034453;28;20204;-72
2023/09/20 03:32:59;;;;;;;5.57;4.10;;;16.10;99.90;;;;;;5034851;28;20272;-72
2023/09/20 03:35:25;;;;;;;4.50;4.10;;;16.10;99.90;;;;;;5033454;28;20210;-73
2023/09/20 03:37:52;;;;;;;5.97;4.73;;;16.00;99.90;;;;;;5034825;28;20544;-74
2023/09/20 03:40:19;;;;;;;5.70;5.10;;;16.00;99.90;;;;;;5034368;28;20205;-71
2023/09/20 03:42:46;;;;;;;4.30;3.90;;;15.90;99.90;;;;;;5034300;28;20212;-71
2023/09/20 03:45:13;;;;;;;4.20;3.90;;;15.80;99.90;;;;;;5034471;28;20233;-73
2023/09/20 03:47:45;;;;;;;6.73;4.10;;;15.80;99.90;;;;;;5034497;28;20241;-73
2023/09/20 03:50:11;;;;;;;4.63;3.60;;;15.70;99.90;;;;;;5034502;28;20167;-72
2023/09/20 03:52:37;;;;;;;5.93;4.23;;;15.70;99.90;;;;;;5034253;28;20318;-72
2023/09/20 03:55:04;;;;;;;4.70;4.20;;;15.70;99.90;;;;;;5034635;28;20439;-72
2023/09/20 03:57:29;;;;;;;4.37;3.67;;;15.60;99.90;;;;;;5034203;28;20183;-73
2023/09/20 03:59:57;;;;;;;4.40;4.00;;;15.60;99.90;;;;;;5034175;28;20189;-73
2023/09/20 04:02:24;;;;;;;5.23;3.37;;;15.60;99.90;;;;;;5034001;28;20663;-75
2023/09/20 04:04:50;;;;;;;6.43;4.03;;;15.50;99.90;;;;;;5034164;28;20671;-71
2023/09/20 04:07:16;;;;;;;5.73;3.87;;;15.50;99.90;;;;;;5034110;28;20179;-72
2023/09/20 04:09:44;;;;;;;6.23;3.80;;;15.40;99.90;;;;;;5033999;28;20168;-72
2023/09/20 04:12:10;;;;;;;4.40;3.90;;;15.40;99.90;;;;;;5033998;28;20187;-71
2023/09/20 04:14:36;;;;;;;5.97;3.87;;;15.30;99.90;;;;;;5033763;28;20263;-71
2023/09/20 04:17:04;;;;;;;5.80;3.90;;;15.40;99.90;;;;;;5034038;28;20179;-72
2023/09/20 04:19:30;;;;;;;7.43;3.90;;;15.30;99.90;;;;;;5033627;28;20178;-72
2023/09/20 04:21:56;;;;;;;4.73;4.00;;;15.30;99.90;;;;;;5033956;28;20671;-72
2023/09/20 04:24:22;;;;;;;7.47;4.43;;;15.30;99.90;;;;;;5033750;28;20200;-71
2023/09/20 04:26:48;;;;;;;9.00;4.40;;;15.30;99.90;;;;;;5033841;28;20662;-71
2023/09/20 04:29:14;;;;;;;5.23;4.23;;;15.30;99.90;;;;;;5032733;28;20190;-72
2023/09/20 04:31:40;;;;;;;9.37;4.33;;;15.20;99.90;;;;;;5033857;28;20195;-73
2023/09/20 04:34:07;;;;;;;4.30;4.00;;;15.20;99.90;;;;;;5033960;28;20186;-73
2023/09/20 04:36:34;;;;;;;4.83;4.30;;;15.20;99.90;;;;;;5025439;28;20183;-71
2023/09/20 04:39:00;;;;;;;5.53;4.67;;;15.10;99.90;;;;;;5033619;28;20186;-73
2023/09/20 04:41:25;;;;;;;5.97;4.90;;;15.10;99.90;;;;;;5033227;28;20616;-72
2023/09/20 04:43:51;;;;;;;4.47;4.00;;;15.10;99.90;;;;;;5033378;28;20206;-72
2023/09/20 04:46:16;;;;;;;5.13;4.63;;;15.10;99.90;;;;;;5033464;28;20179;-72
2023/09/20 04:48:42;;;;;;;3.83;3.53;;;15.10;99.90;;;;;;5033224;28;20177;-75
2023/09/20 04:51:09;;;;;;;6.97;4.00;;;15.00;99.90;;;;;;5033132;28;20195;-71
2023/09/20 04:53:34;;;;;;;5.13;4.43;;;15.00;99.90;;;;;;5033249;28;20303;-72
2023/09/20 04:56:01;;;;;;;4.90;4.20;;;15.00;99.90;;;;;;5033370;28;20689;-73
2023/09/20 04:58:26;;;;;;;5.80;4.40;;;15.00;99.90;;;;;;5033248;28;20179;-72
2023/09/20 05:00:53;;;;;;;6.87;4.00;;;15.00;99.90;;;;;;5032888;28;20187;-72
2023/09/20 05:03:19;;;;;;;5.30;4.13;;;14.90;99.90;;;;;;5032900;28;20655;-72
2023/09/20 05:05:47;;;;;;;5.87;4.10;;;14.90;99.90;;;;;;5033225;28;20203;-72
2023/09/20 05:08:15;;;;;;;5.83;4.33;;;14.90;99.90;;;;;;5033068;28;20225;-73
2023/09/20 05:10:44;;;;;;;5.70;4.50;;;14.90;99.90;;;;;;5036940;28;20178;-73
2023/09/20 05:13:10;;;;;;;7.10;4.40;;;14.80;99.90;;;;;;5036290;28;20171;-74
2023/09/20 05:15:39;;;;;;;5.23;4.10;;;14.80;99.90;;;;;;5033041;28;20175;-72
2023/09/20 05:18:05;;;;;;;6.70;4.43;;;14.80;99.90;;;;;;5032851;28;20599;-73
2023/09/20 05:20:31;;;;;;;4.67;4.27;;;14.80;99.90;;;;;;5032354;28;20184;-73
2023/09/20 05:23:04;;;;;;;5.13;4.63;;;14.80;99.90;;;;;;5032541;28;20195;-72
2023/09/20 05:25:31;;;;;;;6.40;4.60;;;14.80;99.90;;;;;;5032645;28;20674;-73
2023/09/20 05:27:57;;;;;;;7.53;4.60;;;14.80;99.90;;;;;;5032506;28;20647;-73
2023/09/20 05:30:24;;;;;;;5.23;4.30;;;14.80;99.90;;;;;;5040613;28;20172;-72
2023/09/20 05:32:51;;;;;;;5.23;4.60;;;14.80;99.90;;;;;;5032204;28;20667;-72
2023/09/20 05:35:17;;;;;;;6.13;4.33;;;14.80;99.90;;;;;;5033082;28;20225;-73
2023/09/20 05:37:44;;;;;;;9.63;4.60;;;14.80;99.90;;;;;;5039478;28;20176;-73
2023/09/20 05:40:19;;;;;;;8.53;4.47;;;14.80;99.90;;;;;;5032015;28;20545;-73
2023/09/20 05:42:50;;;;;;;5.53;4.80;;;14.80;99.90;;;;;;5032359;28;20637;-73
2023/09/20 05:45:16;;;;;;;6.17;4.87;;;14.80;99.90;;;;;;5032082;28;20199;-73
2023/09/20 05:47:43;;;;;;;5.20;4.70;;;14.80;99.90;;;;;;5031781;28;20210;-73
2023/09/20 05:50:13;;;;;;;7.70;5.00;;;14.90;99.90;;;;;;5031882;28;20430;-73
2023/09/20 05:52:45;;;;;;;6.83;4.77;;;15.00;99.90;;;;;;5031813;28;20211;-74
2023/09/20 05:55:13;;;;;;;5.73;4.40;;;15.00;99.90;;;;;;5034800;28;20205;-73
2023/09/20 05:57:43;;;;;;;7.30;4.50;;;15.10;99.90;;;;;;5022734;28;20179;-72
2023/09/20 06:00:15;;;;;;;6.23;4.37;;;15.20;99.90;;;;;;5031880;28;20194;-72
2023/09/20 06:02:42;;;;;;;9.27;4.57;;;15.20;99.90;;;;;;5031518;28;20195;-72
2023/09/20 06:05:10;;;;;;;5.53;4.30;;;15.30;99.90;;;;;;5031352;28;20198;-73
2023/09/20 06:07:35;;;;;;;6.03;4.33;;;15.40;99.90;;;;;;5043525;28;20272;-72
2023/09/20 06:10:02;;;;;;;6.63;4.30;;;15.50;99.90;;;;;;5031689;28;20268;-72
2023/09/20 06:12:29;;;;;;;6.73;4.80;;;15.50;99.90;;;;;;5031298;28;20274;-72
2023/09/20 06:14:55;;;;;;;5.33;3.80;;;15.60;99.90;;;;;;5030348;28;20187;-73
2023/09/20 06:17:20;;;;;;;4.67;4.23;;;15.70;99.90;;;;;;5031381;28;20179;-72
2023/09/20 06:19:46;;;;;;;4.57;3.93;;;15.70;99.90;;;;;;5031606;28;20226;-73
2023/09/20 06:22:13;;;;;;;4.87;4.20;;;15.80;99.90;;;;;;5034890;28;20240;-72
2023/09/20 06:24:38;;;;;;;6.03;4.40;;;15.90;99.90;;;;;;5031201;28;20198;-73
2023/09/20 06:27:04;;;;;;;6.70;3.77;;;15.90;99.90;;;;;;5031331;28;20175;-72
2023/09/20 06:29:30;;;;;;;3.90;3.60;;;16.00;99.90;;;;;;5031229;28;20172;-72
2023/09/20 06:31:55;;;;;;;4.63;3.80;;;16.00;99.90;;;;;;5039420;28;20192;-73
2023/09/20 06:34:24;;;;;;;5.07;3.70;;;16.10;99.90;;;;;;5031216;28;20179;-73
2023/09/20 06:36:51;;;;;;;5.20;3.77;;;16.20;99.90;;;;;;5031268;28;20175;-72
2023/09/20 06:39:18;;;;;;;6.67;4.57;;;16.30;99.90;;;;;;5031299;28;20175;-73
2023/09/20 06:41:44;;;;;;;8.07;4.90;;;16.40;99.90;;;;;;5031016;28;20286;-73
2023/09/20 06:44:12;;;;;;;5.77;4.47;;;16.60;99.90;;;;;;5031509;28;20241;-73
2023/09/20 06:46:38;;;;;;;6.23;4.90;;;16.70;99.90;;;;;;5030881;28;20251;-73
2023/09/20 06:49:04;;;;;;;7.23;4.97;;;16.90;99.90;;;;;;5031226;28;20254;-72
2023/09/20 06:51:30;;;;;;;7.70;5.80;;;17.00;99.90;;;;;;5030380;28;20207;-73
2023/09/20 06:53:58;;;;;;;11.80;6.23;;;17.00;99.90;;;;;;5030937;28;20683;-72
2023/09/20 06:56:25;;;;;;;8.90;6.90;;;17.10;99.90;;;;;;5030988;28;20186;-72
2023/09/20 06:58:53;;;;;;;17.47;12.13;;;17.20;99.90;;;;;;5030700;28;20709;-73
2023/09/20 07:01:19;;;;;;;12.53;9.63;;;17.20;99.90;;;;;;5030670;28;20203;-72
2023/09/20 07:03:45;;;;;;;10.70;7.70;;;17.30;99.90;;;;;;5035660;28;20477;-74
2023/09/20 07:06:11;;;;;;;7.40;6.70;;;17.40;99.90;;;;;;5030992;28;20183;-73
2023/09/20 07:08:37;;;;;;;6.73;5.07;;;17.40;99.90;;;;;;5030499;28;20202;-72
2023/09/20 07:11:04;;;;;;;7.30;5.10;;;17.40;99.90;;;;;;5030688;28;20207;-72
2023/09/20 07:13:32;;;;;;;6.13;4.90;;;17.50;99.90;;;;;;5030589;28;20547;-73
2023/09/20 07:15:59;;;;;;;6.43;4.40;;;17.50;99.90;;;;;;5030803;28;20650;-73
2023/09/20 07:18:25;;;;;;;5.93;4.30;;;17.50;99.90;;;;;;5030818;28;20183;-73
2023/09/20 07:20:54;;;;;;;4.00;3.70;;;17.50;99.90;;;;;;5030428;28;20183;-73
2023/09/20 07:23:20;;;;;;;4.47;4.07;;;17.50;99.90;;;;;;5030541;28;20647;-73
2023/09/20 07:25:49;;;;;;;5.27;3.60;;;17.50;99.90;;;;;;5030613;28;20207;-73
2023/09/20 07:28:16;;;;;;;6.33;4.20;;;17.50;99.90;;;;;;5030637;28;20167;-73
2023/09/20 07:30:45;;;;;;;5.10;4.57;;;17.50;99.90;;;;;;5030053;28;20254;-73
2023/09/20 07:33:14;;;;;;;4.80;4.30;;;17.60;99.90;;;;;;5030849;28;20172;-73
2023/09/20 07:35:49;;;;;;;4.57;4.27;;;17.60;99.90;;;;;;5030683;28;20529;-74
2023/09/20 07:38:25;;;;;;;3.77;3.47;;;17.70;99.90;;;;;;5030675;28;20179;-72
2023/09/20 07:40:51;;;;;;;5.27;4.37;;;17.70;99.90;;;;;;5030275;28;20195;-71
2023/09/20 07:43:20;;;;;;;6.90;4.53;;;17.70;99.90;;;;;;5030568;28;20191;-71
2023/09/20 07:45:46;;;;;;;5.57;4.63;;;17.70;99.90;;;;;;5034232;28;20214;-72
2023/09/20 07:48:13;;;;;;;7.17;4.63;;;17.70;99.90;;;;;;5033593;28;20503;-73
2023/09/20 07:50:40;;;;;;;7.17;4.67;;;17.80;99.90;;;;;;5030101;28;20686;-72
2023/09/20 07:53:10;;;;;;;4.70;4.27;;;17.80;99.90;;;;;;5030421;28;20661;-72
2023/09/20 07:55:41;;;;;;;5.27;4.73;;;17.80;99.90;;;;;;5030271;28;20468;-72
2023/09/20 07:58:08;;;;;;;8.03;4.97;;;17.90;99.90;;;;;;5030594;28;20199;-72
2023/09/20 08:00:44;;;;;;;7.10;4.47;;;18.00;99.90;;;;;;5031041;28;20222;-72
2023/09/20 08:03:12;;;;;;;5.57;4.13;;;18.10;99.90;;;;;;5030608;28;20291;-74
2023/09/20 08:05:39;;;;;;;7.80;4.00;;;18.20;99.90;;;;;;5033821;28;20388;-73
2023/09/20 08:08:06;;;;;;;5.13;3.83;;;18.30;99.90;;;;;;5032648;28;20639;-72
2023/09/20 08:10:33;;;;;;;5.00;4.17;;;18.40;99.90;;;;;;5032206;28;20178;-73
2023/09/20 08:12:59;;;;;;;8.43;5.83;;;18.50;99.90;;;;;;5033824;28;20750;-72
2023/09/20 08:15:27;;;;;;;6.60;5.87;;;18.70;99.90;;;;;;5033778;28;20183;-74
2023/09/20 08:20:38;;;;;;;7.90;3.50;;;18.90;99.90;;;;;;5033240;28;20267;-73
2023/09/20 09:01:36;;;;;;;3.60;3.30;;;20.10;99.90;;;;;;5033034;28;20226;-73
2023/09/20 09:04:04;;;;;;;5.10;3.75;;;20.70;99.90;;;;;;5032858;28;20176;-71
2023/09/20 09:06:30;;;;;;;4.82;4.43;;;21.10;99.90;;;;;;5032938;28;20230;-71
2023/09/20 09:08:56;;;;;;;5.07;4.57;;;21.20;99.90;;;;;;5032654;28;20642;-71
2023/09/20 09:11:24;;;;;;;4.22;3.92;;;21.30;99.90;;;;;;5032685;28;20210;-73
2023/09/20 09:13:54;;;;;;;8.40;5.78;;;21.20;99.90;;;;;;5027059;28;20179;-72
2023/09/20 09:16:20;;;;;;;7.40;3.88;;;21.20;99.90;;;;;;5032713;28;20194;-71
2023/09/20 09:18:45;;;;;;;5.25;3.83;;;21.50;99.90;;;;;;5032303;28;20568;-73
2023/09/20 09:21:17;;;;;;;6.72;4.70;;;21.90;99.90;;;;;;5032511;28;20481;-72
2023/09/20 09:23:45;;;;;;;5.43;4.93;;;22.00;99.90;;;;;;5032439;28;20179;-72
2023/09/20 09:26:12;;;;;;;10.23;6.15;;;22.10;99.90;;;;;;5032611;28;20198;-72
2023/09/20 09:28:42;;;;;;;4.25;3.83;;;22.30;99.90;;;;;;5032577;28;20262;-71
2023/09/20 09:31:08;;;;;;;4.65;3.63;;;22.60;99.90;;;;;;5031012;28;20188;-73
2023/09/20 09:33:37;;;;;;;12.82;11.65;;;23.00;99.90;;;;;;5032219;28;20184;-73
2023/09/20 09:36:04;;;;;;;3.22;2.92;;;23.50;99.90;;;;;;5032622;28;20186;-73
2023/09/20 09:38:32;;;;;;;4.60;3.10;;;23.80;99.90;;;;;;5032112;28;20184;-72
2023/09/20 09:40:59;;;;;;;5.00;2.97;;;23.90;99.90;;;;;;5031909;28;20199;-73
2023/09/20 09:43:32;;;;;;;4.80;2.08;;;24.10;99.90;;;;;;5032095;28;20206;-75
2023/09/20 09:46:08;;;;;;;8.95;2.40;;;24.20;99.90;;;;;;5032167;28;20211;-75
2023/09/20 09:48:38;;;;;;;4.43;2.33;;;24.30;99.90;;;;;;5032229;28;20183;-74
2023/09/20 09:51:08;;;;;;;3.10;2.80;;;24.50;99.90;;;;;;5035707;28;20217;-72
2023/09/20 09:53:36;;;;;;;3.63;2.42;;;24.70;99.90;;;;;;5038906;28;20190;-73
2023/09/20 09:56:04;;;;;;;2.53;2.33;;;25.00;99.90;;;;;;5032071;28;20544;-75
2023/09/20 09:58:29;;;;;;;3.70;2.63;;;25.20;99.90;;;;;;5031858;28;20651;-75
2023/09/20 10:00:57;;;;;;;3.30;3.03;;;25.10;99.90;;;;;;5031674;28;20242;-75
2023/09/20 10:03:32;;;;;;;3.30;2.70;;;25.00;99.90;;;;;;5032106;28;20245;-73
2023/09/20 10:06:05;;;;;;;4.70;3.33;;;25.00;99.90;;;;;;5031685;28;20293;-74
2023/09/20 10:08:33;;;;;;;5.47;5.13;;;25.20;99.90;;;;;;5031735;28;20175;-75
2023/09/20 10:11:05;;;;;;;4.95;4.57;;;25.40;99.90;;;;;;5030032;28;20278;-74
2023/09/20 10:13:32;;;;;;;5.47;5.18;;;25.40;99.90;;;;;;5035961;28;20186;-74
2023/09/20 10:16:01;;;;;;;8.35;7.65;;;25.30;99.90;;;;;;5031732;28;20246;-73
2023/09/20 10:18:33;;;;;;;8.25;7.68;;;24.90;99.90;;;;;;5031645;28;20585;-74
2023/09/20 10:21:11;;;;;;;3.63;3.38;;;24.50;99.90;;;;;;5031531;28;20183;-73
2023/09/20 10:23:38;;;;;;;4.60;4.30;;;24.30;99.90;;;;;;5031342;28;20180;-71
2023/09/20 10:26:16;;;;;;;4.40;4.00;;;24.10;99.90;;;;;;5030805;28;20203;-71
2023/09/20 10:28:44;;;;;;;3.20;2.90;;;24.10;99.90;;;;;;5033420;28;20171;-73
2023/09/20 10:31:18;;;;;;;4.32;3.92;;;24.10;99.90;;;;;;5031375;28;20191;-73
2023/09/20 10:33:46;;;;;;;5.32;3.15;;;24.10;99.90;;;;;;5031374;28;20182;-72
2023/09/20 10:36:18;;;;;;;4.70;4.30;;;24.10;99.90;;;;;;5031419;28;20651;-72
2023/09/20 10:38:45;;;;;;;4.75;4.45;;;24.20;99.90;;;;;;5031448;28;20659;-73
2023/09/20 10:41:12;;;;;;;3.08;2.50;;;24.40;99.90;;;;;;5031098;28;20241;-71
2023/09/20 10:43:38;;;;;;;3.22;2.90;;;24.60;99.90;;;;;;5031065;28;20202;-72
2023/09/20 10:46:07;;;;;;;6.55;2.88;;;24.70;99.90;;;;;;5035034;28;20207;-71
2023/09/20 10:48:34;;;;;;;3.80;2.60;;;24.60;99.90;;;;;;5031185;28;20211;-71
2023/09/20 10:51:03;;;;;;;2.95;2.10;;;24.50;99.90;;;;;;5030767;28;20175;-71
2023/09/20 10:53:53;;;;;;;3.10;2.22;;;24.60;99.90;;;;;;5031106;28;20270;-70
2023/09/20 10:57:05;;;;;;;3.25;2.70;;;24.90;99.90;;;;;;5025189;28;20194;-73
2023/09/20 10:59:31;;;;;;;2.90;2.70;;;25.20;99.90;;;;;;5039797;28;20321;-72
2023/09/20 11:02:12;;;;;;;2.50;2.30;;;25.20;99.90;;;;;;5031000;28;20200;-73
2023/09/20 11:04:38;;;;;;;4.70;2.60;;;25.40;99.90;;;;;;5030836;28;20256;-73
2023/09/20 11:07:05;;;;;;;11.55;2.92;;;25.40;99.90;;;;;;5030869;28;20210;-73
2023/09/20 11:09:33;;;;;;;3.53;2.22;;;25.40;99.90;;;;;;5033739;28;20205;-72
2023/09/20 11:12:11;;;;;;;3.25;2.20;;;25.60;99.90;;;;;;5030782;28;20192;-73
2023/09/20 11:14:41;;;;;;;2.47;2.08;;;25.90;99.90;;;;;;5036920;28;20205;-75
2023/09/20 11:17:08;;;;;;;2.35;2.15;;;26.10;99.90;;;;;;5030776;28;20183;-73
2023/09/20 11:19:35;;;;;;;2.35;2.15;;;26.20;99.90;;;;;;5038738;28;20524;-73
2023/09/20 11:22:02;;;;;;;2.33;2.13;;;26.20;99.90;;;;;;5030827;28;20202;-73
2023/09/20 11:24:28;;;;;;;3.65;2.25;;;26.20;99.90;;;;;;5032762;28;20211;-73
2023/09/20 11:26:55;;;;;;;3.10;2.55;;;26.20;99.90;;;;;;5030320;28;20210;-73
2023/09/20 11:29:21;;;;;;;2.45;2.17;;;26.30;99.90;;;;;;5030393;28;20180;-73
2023/09/20 11:31:48;;;;;;;2.28;2.05;;;26.30;99.90;;;;;;5030387;28;20572;-74
2023/09/20 11:34:14;;;;;;;2.45;2.25;;;26.30;99.90;;;;;;5030732;28;20182;-73
2023/09/20 11:36:44;;;;;;;2.45;1.90;;;26.10;99.90;;;;;;5029071;28;20176;-73
2023/09/20 11:39:14;;;;;;;4.80;2.30;;;25.90;99.90;;;;;;5033983;28;20255;-74
2023/09/20 11:41:43;;;;;;;7.22;2.20;;;25.80;99.90;;;;;;5034118;28;20213;-73
2023/09/20 11:44:08;;;;;;;6.15;2.67;;;25.80;99.90;;;;;;5034362;28;20192;-74
2023/09/20 11:46:34;;;;;;;2.47;2.20;;;25.80;99.90;;;;;;5033897;28;20190;-73
2023/09/20 11:49:02;;;;;;;2.38;2.17;;;25.70;99.90;;;;;;5034225;28;20183;-73
2023/09/20 11:51:34;;;;;;;3.10;2.33;;;25.70;99.90;;;;;;5033956;28;20202;-73
2023/09/20 11:54:02;;;;;;;4.68;2.20;;;25.80;99.90;;;;;;5026597;28;20175;-73
2023/09/20 11:56:32;;;;;;;3.60;2.35;;;26.00;99.90;;;;;;5034132;28;20183;-72
2023/09/20 11:59:06;;;;;;;6.22;3.28;;;26.20;99.90;;;;;;5033959;28;20548;-73
2023/09/20 12:01:33;;;;;;;4.97;4.68;;;26.40;99.90;;;;;;5033993;28;20702;-71
2023/09/20 12:04:03;;;;;;;4.90;4.07;;;26.40;99.90;;;;;;5025874;28;20179;-72
2023/09/20 12:06:29;;;;;;;3.72;3.35;;;26.20;99.90;;;;;;5034282;28;20266;-73
2023/09/20 12:08:55;;;;;;;3.80;3.45;;;26.20;99.90;;;;;;5033812;28;20712;-74
2023/09/20 12:11:22;;;;;;;4.30;3.50;;;26.30;99.90;;;;;;5033917;28;20235;-71
2023/09/20 12:13:48;;;;;;;6.45;3.22;;;26.00;99.90;;;;;;5033788;28;20674;-73
2023/09/20 12:16:14;;;;;;;5.95;3.25;;;25.70;99.90;;;;;;5033981;28;20195;-71
2023/09/20 12:18:42;;;;;;;9.20;3.63;;;25.50;99.90;;;;;;5033919;28;20207;-72
2023/09/20 12:21:08;;;;;;;3.10;2.40;;;25.40;99.90;;;;;;5033652;28;20253;-74
2023/09/20 12:23:41;;;;;;;7.10;2.55;;;25.30;99.90;;;;;;5033569;28;20187;-72
2023/09/20 12:26:07;;;;;;;2.90;2.70;;;25.40;99.90;;;;;;5033887;28;20301;-73
2023/09/20 12:28:38;;;;;;;5.85;2.95;;;25.60;99.90;;;;;;5033872;28;20179;-74
2023/09/20 12:31:04;;;;;;;3.42;2.78;;;25.90;99.90;;;;;;5033197;28;20179;-74
2023/09/20 12:33:30;;;;;;;5.53;2.50;;;25.90;99.90;;;;;;5033712;28;20259;-73
2023/09/20 12:35:57;;;;;;;3.10;2.75;;;25.80;99.90;;;;;;5033500;28;20636;-73
2023/09/20 12:38:23;;;;;;;3.50;2.50;;;25.80;99.90;;;;;;5032894;28;20556;-72
2023/09/20 12:40:49;;;;;;;3.15;2.80;;;25.80;99.90;;;;;;5032778;28;20213;-73
2023/09/20 12:43:18;;;;;;;3.58;2.70;;;25.90;99.90;;;;;;5034204;28;20202;-74
2023/09/20 12:45:44;;;;;;;5.13;3.00;;;26.10;99.90;;;;;;5032922;28;20296;-72
2023/09/20 12:48:11;;;;;;;3.88;3.60;;;26.30;99.90;;;;;;5033042;28;20181;-73
2023/09/20 12:50:37;;;;;;;3.03;2.72;;;26.60;99.90;;;;;;5035318;28;20215;-73
2023/09/20 12:53:09;;;;;;;2.65;2.45;;;27.00;99.90;;;;;;5032777;28;20215;-73
2023/09/20 12:55:37;;;;;;;4.28;2.40;;;27.10;99.90;;;;;;5033066;28;20206;-71
2023/09/20 12:58:06;;;;;;;3.08;2.17;;;27.10;99.90;;;;;;5033086;28;20186;-72
2023/09/20 13:00:37;;;;;;;3.85;2.47;;;26.90;99.90;;;;;;5032812;28;20631;-73
2023/09/20 13:03:11;;;;;;;5.15;2.53;;;26.90;99.90;;;;;;5030654;28;20374;-73
2023/09/20 13:05:38;;;;;;;4.18;2.72;;;26.90;99.90;;;;;;5037805;28;20210;-73
2023/09/20 13:08:05;;;;;;;3.47;2.95;;;26.70;99.90;;;;;;5032724;28;20180;-72
2023/09/20 13:10:32;;;;;;;12.68;4.18;;;26.50;99.90;;;;;;5032855;28;20248;-73
2023/09/20 13:12:58;;;;;;;7.10;3.42;;;26.40;99.90;;;;;;5032568;28;20587;-74
2023/09/20 13:15:24;;;;;;;4.10;3.10;;;26.30;99.90;;;;;;5032807;28;20183;-74
2023/09/20 13:17:52;;;;;;;7.53;3.42;;;26.40;99.90;;;;;;5034361;28;20191;-72
2023/09/20 13:20:22;;;;;;;3.65;3.10;;;26.50;99.90;;;;;;5038689;28;20193;-72
2023/09/20 13:22:52;;;;;;;3.03;2.70;;;26.70;99.90;;;;;;5030941;28;20207;-73
2023/09/20 13:25:19;;;;;;;3.33;3.13;;;26.80;99.90;;;;;;5035360;28;20276;-72
2023/09/20 13:27:45;;;;;;;3.70;3.40;;;26.80;99.90;;;;;;5033284;28;20234;-73
2023/09/20 13:30:12;;;;;;;7.68;3.90;;;26.80;99.90;;;;;;5032456;28;20172;-72